Impacts TAF Board INFO
FOR SITUATIONAL AWARENESS. NOT TO BE USED FOR FLIGHT PLANNING PURPOSES.
IDs:

KIAH - Houston/Bush Intl, TX, US

Issued at 2332 UTC 23 Aug 2017
Updated at 0115 UTC 24 Aug 2017
Potential Impact None Slight Moderate High
Time0053Z 24/02Z 24/03Z 24/04Z 24/05Z 24/06Z 24/07Z 24/08Z 24/09Z 24/10Z 24/11Z 24/12Z 24/13Z 24/14Z>>
Type OBS PRVL PRVL PRVL PRVL PRVL PRVL PRVL PRVL PRVL PRVL PRVL PRVL PRVL
VIS 10 >6 >6 >6 >6 >6 >6 >6 >6 >6 >6 >6 >6 >6
CIG 250 -- -- -- -- -- -- -- -- -- -- -- -- --
Cover BKN SCT SCT SCT SCT SCT SCT SCT SCT SCT SCT SCT SCT SCT
FltCat VFR VFR VFR VFR VFR VFR VFR VFR VFR VFR VFR VFR VFR VFR
WX -- -- -- -- -- -- -- -- -- -- -- -- -- --
WDir 110 VRB VRB VRB VRB VRB VRB VRB VRB VRB VRB VRB 50 50
WSpd 8 5 5 5 5 5 5 5 5 5 5 5 3 3
WGst -- -- -- -- -- -- -- -- -- -- -- -- -- --

Raw TAF
KIAH 232332Z 2400/2506 13011KT P6SM VCTS SCT050CB SCT100 SCT250
  FM240100 VRB05KT P6SM SCT250
  FM241300 05003KT P6SM SCT030
  FM241700 10006KT P6SM SCT050 BKN120
  FM242200 11008KT P6SM VCTS BKN060CB
  FM250100 08006KT P6SM FEW060


Raw METAR
KIAH 240053Z 11008KT 10SM FEW030 FEW070 SCT100 BKN250 29/23 A2987 RMK AO2 LTG DSNT NW SLP114 T02940233
KIAH 232353Z 11011KT 10SM FEW050 SCT100 BKN250 32/23 A2987 RMK AO2 LTG DSNT N AND NW SLP112 CB DSNT NW-N MOV SW 60015 T03170228 10350 20300 55002
KIAH 232253Z 12013KT 10SM FEW055 FEW100 SCT250 32/23 A2986 RMK AO2 LTG DSNT N AND NE SLP110 CB DSNT N-NE MOV SW T03170228

METAR Board
Radar Display
Forecast Discussion

FOR SITUATIONAL AWARENESS. NOT TO BE USED FOR FLIGHT PLANNING PURPOSES.